Time;durP1;ratioP1;P1;durP2;ratioP2;P2;SDS_P1;SDS_P2;PMS_P1;PMS_P2;Temp;Humidity;BMP_temperature;BMP_pressure;BME280_temperature;BME280_humidity;BME280_pressure;Samples;Min_cycle;Max_cycle;Signal;HPM_P1;HPM_P2
2023/07/12 00:01:35;;;;;;;;;;;26.20;88.20;;;;;;5117158;28;19953;-50
2023/07/12 00:04:00;;;;;;;;;;;26.20;88.20;;;;;;5117076;28;19912;-46
2023/07/12 00:06:36;;;;;;;;;;;26.20;88.20;;;;;;5117344;28;20015;-48
2023/07/12 00:09:02;;;;;;;;;;;26.20;88.20;;;;;;5117054;28;19908;-47
2023/07/12 00:11:27;;;;;;;;;;;26.20;88.20;;;;;;5117071;28;19966;-50
2023/07/12 00:13:54;;;;;;;;;;;26.20;88.70;;;;;;5098949;28;19908;-46
2023/07/12 00:16:23;;;;;;;;;;;26.20;88.30;;;;;;5116769;28;20010;-48
2023/07/12 00:18:48;;;;;;;;;;;26.20;88.40;;;;;;5117144;28;19918;-47
2023/07/12 00:21:22;;;;;;;;;;;26.20;88.20;;;;;;5116293;28;19908;-48
2023/07/12 00:23:49;;;;;;;;;;;26.20;88.30;;;;;;5117040;28;19908;-50
2023/07/12 00:26:19;;;;;;;;;;;26.20;88.30;;;;;;5116893;28;19914;-46
2023/07/12 00:28:44;;;;;;;;;;;26.20;88.30;;;;;;5117241;28;19998;-46
2023/07/12 00:31:10;;;;;;;;;;;26.20;88.30;;;;;;5116646;28;19971;-46
2023/07/12 00:33:35;;;;;;;;;;;26.20;88.30;;;;;;5116956;28;19907;-47
2023/07/12 00:36:00;;;;;;;;;;;26.20;88.30;;;;;;5116457;28;20497;-51
2023/07/12 00:38:26;;;;;;;;;;;26.20;88.30;;;;;;5116607;28;19912;-50
2023/07/12 00:40:54;;;;;;;;;;;26.20;88.50;;;;;;5116658;28;19915;-49
2023/07/12 00:43:29;;;;;;;;;;;26.20;88.40;;;;;;5116406;28;19973;-46
2023/07/12 00:45:56;;;;;;;;;;;26.20;88.40;;;;;;5116752;28;19919;-47
2023/07/12 00:48:21;;;;;;;;;;;26.20;88.30;;;;;;5116220;28;19996;-48
2023/07/12 00:50:48;;;;;;;;;;;26.20;88.40;;;;;;5116483;28;19947;-50
2023/07/12 00:53:15;;;;;;;;;;;26.30;88.60;;;;;;5116484;28;19908;-51
2023/07/12 00:56:19;;;;;;;;;;;26.20;88.50;;;;;;5116007;28;20283;-52
2023/07/12 00:58:45;;;;;;;;;;;26.20;88.50;;;;;;5013478;28;20365;-47
2023/07/12 01:01:12;;;;;;;;;;;26.30;88.60;;;;;;5013595;28;19956;-46
2023/07/12 01:03:38;;;;;;;;;;;26.30;88.50;;;;;;5062597;28;19907;-46
2023/07/12 01:06:05;;;;;;;;;;;26.30;88.50;;;;;;5115882;28;20311;-50
2023/07/12 01:08:31;;;;;;;;;;;26.20;88.40;;;;;;5115880;28;20320;-51
2023/07/12 01:10:57;;;;;;;;;;;26.30;88.50;;;;;;5116151;28;19915;-51
2023/07/12 01:13:23;;;;;;;;;;;26.20;88.50;;;;;;5116325;28;19912;-47
2023/07/12 01:15:49;;;;;;;;;;;26.30;88.60;;;;;;5115957;28;19956;-51
2023/07/12 01:18:15;;;;;;;;;;;26.30;89.10;;;;;;5115740;28;19915;-48
2023/07/12 01:20:42;;;;;;;;;;;26.30;88.60;;;;;;5116279;28;19908;-50
2023/07/12 01:23:08;;;;;;;;;;;26.30;88.60;;;;;;5115697;28;19908;-48
2023/07/12 01:25:56;;;;;;;;;;;26.30;88.60;;;;;;5115940;28;20010;-48
2023/07/12 01:28:21;;;;;;;;;;;26.30;88.60;;;;;;5113128;28;19908;-51
2023/07/12 01:30:47;;;;;;;;;;;26.30;88.60;;;;;;5115722;28;20007;-51
2023/07/12 01:33:13;;;;;;;;;;;26.30;88.60;;;;;;5114822;28;20269;-47
2023/07/12 01:35:38;;;;;;;;;;;26.20;88.50;;;;;;5115524;28;19918;-49
2023/07/12 01:38:04;;;;;;;;;;;26.20;88.50;;;;;;5115434;28;19912;-52
2023/07/12 01:40:29;;;;;;;;;;;26.30;88.80;;;;;;5115979;28;19908;-51
2023/07/12 01:42:55;;;;;;;;;;;26.30;88.70;;;;;;5115230;28;20340;-52
2023/07/12 01:45:20;;;;;;;;;;;26.30;88.70;;;;;;5096937;28;19920;-50
2023/07/12 01:47:45;;;;;;;;;;;26.30;88.80;;;;;;5115126;28;19908;-49
2023/07/12 01:50:11;;;;;;;;;;;26.30;88.70;;;;;;5115054;28;19908;-48
2023/07/12 01:52:36;;;;;;;;;;;26.30;88.70;;;;;;5115012;28;19952;-48
2023/07/12 01:55:02;;;;;;;;;;;26.30;88.80;;;;;;5114866;28;19915;-52
2023/07/12 01:57:27;;;;;;;;;;;26.30;88.60;;;;;;5115242;28;19994;-50
2023/07/12 01:59:53;;;;;;;;;;;26.30;88.60;;;;;;5096978;28;19914;-50
2023/07/12 02:02:18;;;;;;;;;;;26.30;88.60;;;;;;5115184;28;19907;-48
2023/07/12 02:04:44;;;;;;;;;;;26.30;88.70;;;;;;5115113;28;19915;-50
2023/07/12 02:07:09;;;;;;;;;;;26.20;88.70;;;;;;5115153;28;19908;-51
2023/07/12 02:09:38;;;;;;;;;;;26.30;88.70;;;;;;5115116;28;19908;-48
2023/07/12 02:12:04;;;;;;;;;;;26.30;88.70;;;;;;5115014;28;19911;-48
2023/07/12 02:14:29;;;;;;;;;;;26.30;88.70;;;;;;5114725;28;19908;-48
2023/07/12 02:16:54;;;;;;;;;;;26.30;88.60;;;;;;5115218;28;20002;-49
2023/07/12 02:19:20;;;;;;;;;;;26.30;88.70;;;;;;5114762;28;19907;-48
2023/07/12 02:21:45;;;;;;;;;;;26.30;88.80;;;;;;5114818;28;19915;-50
2023/07/12 02:24:11;;;;;;;;;;;26.30;88.80;;;;;;5114896;28;19930;-48
2023/07/12 02:26:36;;;;;;;;;;;26.30;88.80;;;;;;5114818;28;19943;-46
2023/07/12 02:29:02;;;;;;;;;;;26.30;89.00;;;;;;5114739;28;19926;-51
2023/07/12 02:31:29;;;;;;;;;;;26.30;89.00;;;;;;5114783;28;19907;-48
2023/07/12 02:33:54;;;;;;;;;;;26.30;89.00;;;;;;5114403;28;20362;-48
2023/07/12 02:36:20;;;;;;;;;;;26.30;88.90;;;;;;5114350;28;19912;-47
2023/07/12 02:38:46;;;;;;;;;;;26.30;89.00;;;;;;5114628;28;20346;-49
2023/07/12 02:41:12;;;;;;;;;;;26.30;88.90;;;;;;5114521;28;19908;-51
2023/07/12 02:43:37;;;;;;;;;;;26.30;88.80;;;;;;5114328;28;19908;-49
2023/07/12 02:46:03;;;;;;;;;;;26.30;88.80;;;;;;5114635;28;19962;-50
2023/07/12 02:48:28;;;;;;;;;;;26.30;88.90;;;;;;5114547;28;19915;-47
2023/07/12 02:50:54;;;;;;;;;;;26.30;88.90;;;;;;5096350;28;20380;-48
2023/07/12 02:53:19;;;;;;;;;;;26.30;88.80;;;;;;5114502;28;19908;-49
2023/07/12 02:55:49;;;;;;;;;;;26.30;88.80;;;;;;5096139;28;20001;-49
2023/07/12 02:58:14;;;;;;;;;;;26.30;88.80;;;;;;5114370;28;19972;-49
2023/07/12 03:00:40;;;;;;;;;;;26.30;88.90;;;;;;5114167;28;19908;-47
2023/07/12 03:03:05;;;;;;;;;;;26.30;89.00;;;;;;5114400;28;20261;-48
2023/07/12 03:05:34;;;;;;;;;;;26.30;89.00;;;;;;5114445;28;19915;-46
2023/07/12 03:07:59;;;;;;;;;;;26.40;89.00;;;;;;5114427;28;19908;-50
2023/07/12 03:10:25;;;;;;;;;;;26.40;88.90;;;;;;5114170;28;19915;-50
2023/07/12 03:12:50;;;;;;;;;;;26.40;88.90;;;;;;5114231;28;19908;-52
2023/07/12 03:15:16;;;;;;;;;;;26.40;89.00;;;;;;5113757;28;19912;-46
2023/07/12 03:17:41;;;;;;;;;;;26.40;88.90;;;;;;5114234;28;19934;-50
2023/07/12 03:20:07;;;;;;;;;;;26.30;88.90;;;;;;5114333;28;19915;-47
2023/07/12 03:22:32;;;;;;;;;;;26.40;89.10;;;;;;5114604;28;19916;-50
2023/07/12 03:24:58;;;;;;;;;;;26.30;88.80;;;;;;5113904;28;19946;-50
2023/07/12 03:27:23;;;;;;;;;;;26.30;88.80;;;;;;5114429;28;19908;-48
2023/07/12 03:29:49;;;;;;;;;;;26.30;88.90;;;;;;5114039;28;20014;-48
2023/07/12 03:32:14;;;;;;;;;;;26.40;89.00;;;;;;5114077;28;19908;-46
2023/07/12 03:34:40;;;;;;;;;;;26.40;88.90;;;;;;5114199;28;19908;-46
2023/07/12 03:37:05;;;;;;;;;;;26.40;88.80;;;;;;5113698;28;19912;-50
2023/07/12 03:39:31;;;;;;;;;;;26.40;88.80;;;;;;5114346;28;20000;-48
2023/07/12 03:41:56;;;;;;;;;;;26.40;88.90;;;;;;5113883;28;19935;-48
2023/07/12 03:44:22;;;;;;;;;;;26.40;89.00;;;;;;5114123;28;19943;-51
2023/07/12 03:46:47;;;;;;;;;;;26.40;89.00;;;;;;5114022;28;19908;-50
2023/07/12 03:49:13;;;;;;;;;;;26.30;89.00;;;;;;5114097;28;20346;-47
2023/07/12 03:51:38;;;;;;;;;;;26.40;88.90;;;;;;5110613;28;19916;-46
2023/07/12 03:54:04;;;;;;;;;;;26.40;89.00;;;;;;5098866;28;19952;-52
2023/07/12 03:56:29;;;;;;;;;;;26.40;89.10;;;;;;5113965;28;20316;-52
2023/07/12 03:58:55;;;;;;;;;;;26.40;89.20;;;;;;5116963;28;19991;-48
2023/07/12 04:01:20;;;;;;;;;;;26.30;89.00;;;;;;5117105;28;20351;-51
2023/07/12 04:03:46;;;;;;;;;;;26.40;89.20;;;;;;5116892;28;20006;-46
2023/07/12 04:06:12;;;;;;;;;;;26.40;89.10;;;;;;5105658;28;19948;-46
2023/07/12 04:08:38;;;;;;;;;;;26.40;89.20;;;;;;5107470;28;19939;-49
2023/07/12 04:11:04;;;;;;;;;;;26.30;89.10;;;;;;5105056;28;19913;-47
2023/07/12 04:13:30;;;;;;;;;;;26.40;89.40;;;;;;5116856;28;20354;-47
2023/07/12 04:15:56;;;;;;;;;;;26.40;89.40;;;;;;5116838;28;19912;-49
2023/07/12 04:18:23;;;;;;;;;;;26.40;89.40;;;;;;5102234;28;19956;-46
2023/07/12 04:20:48;;;;;;;;;;;26.30;89.40;;;;;;5100279;28;19970;-48
2023/07/12 04:23:14;;;;;;;;;;;26.40;89.50;;;;;;5099971;28;19912;-47
2023/07/12 04:25:39;;;;;;;;;;;26.40;89.50;;;;;;5102589;28;20305;-50
2023/07/12 04:28:05;;;;;;;;;;;26.40;89.60;;;;;;5083266;28;19918;-52
2023/07/12 04:30:30;;;;;;;;;;;26.40;89.70;;;;;;5093349;28;20277;-49
2023/07/12 04:32:56;;;;;;;;;;;26.40;89.80;;;;;;5094946;28;19942;-47
2023/07/12 04:35:21;;;;;;;;;;;26.40;89.90;;;;;;5094602;28;19916;-49
2023/07/12 04:37:48;;;;;;;;;;;26.40;90.00;;;;;;5096723;28;20371;-45
2023/07/12 04:40:14;;;;;;;;;;;26.40;90.00;;;;;;5098030;28;19915;-48
2023/07/12 04:42:40;;;;;;;;;;;26.40;89.90;;;;;;5094322;28;20339;-50
2023/07/12 04:45:06;;;;;;;;;;;26.40;89.90;;;;;;5096462;28;19920;-50
2023/07/12 04:47:34;;;;;;;;;;;26.40;89.80;;;;;;5094910;28;20426;-47
2023/07/12 04:49:59;;;;;;;;;;;26.40;89.80;;;;;;5095483;28;19940;-51
2023/07/12 04:52:24;;;;;;;;;;;26.40;89.80;;;;;;5095487;28;19914;-47
2023/07/12 04:54:55;;;;;;;;;;;26.40;89.80;;;;;;5077607;28;19915;-48
2023/07/12 04:57:20;;;;;;;;;;;26.40;89.80;;;;;;5095366;28;19912;-45
2023/07/12 04:59:46;;;;;;;;;;;26.40;89.80;;;;;;5095167;28;19931;-49
2023/07/12 05:02:11;;;;;;;;;;;26.40;89.80;;;;;;5095459;28;19912;-46
2023/07/12 05:04:37;;;;;;;;;;;26.40;89.70;;;;;;5095574;28;19992;-49
2023/07/12 05:07:03;;;;;;;;;;;26.40;89.70;;;;;;5094953;28;19919;-47
2023/07/12 05:09:28;;;;;;;;;;;26.40;89.60;;;;;;5095437;28;19908;-46
2023/07/12 05:11:54;;;;;;;;;;;26.40;89.40;;;;;;5095405;28;19908;-49
2023/07/12 05:14:19;;;;;;;;;;;26.40;89.40;;;;;;5095626;28;19908;-46
2023/07/12 05:16:45;;;;;;;;;;;26.40;89.30;;;;;;5095112;28;20011;-45
2023/07/12 05:19:11;;;;;;;;;;;26.40;89.30;;;;;;5094897;28;19934;-50
2023/07/12 05:21:36;;;;;;;;;;;26.40;89.20;;;;;;5095052;28;20278;-45
2023/07/12 05:24:02;;;;;;;;;;;26.40;89.20;;;;;;5095461;28;19908;-47
2023/07/12 05:26:27;;;;;;;;;;;26.40;89.20;;;;;;5095156;28;19934;-47
2023/07/12 05:28:53;;;;;;;;;;;26.40;89.10;;;;;;5094886;28;19915;-50
2023/07/12 05:31:18;;;;;;;;;;;26.40;89.10;;;;;;5094405;28;20000;-47
2023/07/12 05:33:45;;;;;;;;;;;26.40;89.00;;;;;;5094541;28;20278;-45
2023/07/12 05:36:11;;;;;;;;;;;26.40;88.90;;;;;;5094628;28;20401;-45
2023/07/12 05:38:36;;;;;;;;;;;26.40;88.90;;;;;;5094534;28;19912;-46
2023/07/12 05:41:02;;;;;;;;;;;26.40;88.90;;;;;;5095426;28;19922;-48
2023/07/12 05:43:28;;;;;;;;;;;26.40;89.00;;;;;;5093062;28;19927;-49
2023/07/12 05:45:56;;;;;;;;;;;26.40;89.50;;;;;;5093003;28;19920;-50
2023/07/12 05:48:25;;;;;;;;;;;26.40;89.10;;;;;;5098853;28;19965;-49
2023/07/12 05:50:51;;;;;;;;;;;26.40;88.60;;;;;;5095270;28;19954;-51
2023/07/12 05:53:17;;;;;;;;;;;26.40;88.30;;;;;;5094299;28;19912;-50
2023/07/12 05:55:42;;;;;;;;;;;26.30;88.70;;;;;;5095911;28;19931;-47
2023/07/12 05:58:08;;;;;;;;;;;26.30;87.90;;;;;;5094909;28;19953;-52
2023/07/12 06:00:33;;;;;;;;;;;26.20;87.40;;;;;;5096398;28;19957;-51
2023/07/12 06:02:59;;;;;;;;;;;26.10;87.90;;;;;;5095178;28;19924;-50
2023/07/12 06:05:24;;;;;;;;;;;26.10;88.50;;;;;;5092810;28;19981;-50
2023/07/12 06:07:50;;;;;;;;;;;26.10;88.80;;;;;;5075889;28;19908;-49
2023/07/12 06:10:16;;;;;;;;;;;26.20;89.40;;;;;;5094091;28;19908;-47
2023/07/12 06:12:42;;;;;;;;;;;26.20;89.70;;;;;;5093758;28;20004;-50
2023/07/12 06:15:07;;;;;;;;;;;26.20;90.00;;;;;;5075796;28;19919;-51
2023/07/12 06:17:33;;;;;;;;;;;26.20;90.10;;;;;;5093941;28;19923;-49
2023/07/12 06:19:58;;;;;;;;;;;26.20;90.20;;;;;;5094046;28;19934;-51
2023/07/12 06:22:24;;;;;;;;;;;26.30;90.20;;;;;;5093894;28;20293;-48
2023/07/12 06:24:49;;;;;;;;;;;26.30;90.20;;;;;;5075489;28;19908;-50
2023/07/12 06:27:15;;;;;;;;;;;26.30;90.30;;;;;;5093352;28;19908;-50
2023/07/12 06:29:41;;;;;;;;;;;26.30;90.20;;;;;;5091983;28;19908;-50
2023/07/12 06:32:08;;;;;;;;;;;26.30;90.00;;;;;;5088082;28;20350;-49
2023/07/12 06:34:34;;;;;;;;;;;26.30;89.80;;;;;;5095172;28;20192;-50
2023/07/12 06:36:59;;;;;;;;;;;26.30;90.00;;;;;;5094513;28;19916;-50
2023/07/12 06:39:25;;;;;;;;;;;26.30;90.10;;;;;;5094700;28;19915;-46
2023/07/12 06:41:50;;;;;;;;;;;26.30;90.10;;;;;;5096084;28;20658;-48
2023/07/12 06:44:16;;;;;;;;;;;26.30;90.10;;;;;;5094480;28;20271;-47
2023/07/12 06:46:41;;;;;;;;;;;26.30;90.00;;;;;;5098399;28;19923;-46
2023/07/12 06:49:07;;;;;;;;;;;26.30;89.70;;;;;;5094994;28;19916;-53
2023/07/12 06:51:32;;;;;;;;;;;26.30;89.30;;;;;;5094971;28;20011;-47
2023/07/12 06:53:58;;;;;;;;;;;26.30;89.30;;;;;;5075531;28;20007;-54
2023/07/12 06:56:23;;;;;;;;;;;26.30;89.30;;;;;;5096188;28;20308;-51
2023/07/12 06:58:49;;;;;;;;;;;26.30;89.60;;;;;;5099388;28;19941;-53
2023/07/12 07:01:14;;;;;;;;;;;26.30;89.10;;;;;;5095007;28;19908;-53
2023/07/12 07:03:40;;;;;;;;;;;26.30;89.10;;;;;;5073167;28;20498;-51
2023/07/12 07:06:05;;;;;;;;;;;26.30;89.80;;;;;;5091563;28;19912;-50
2023/07/12 07:08:31;;;;;;;;;;;26.30;89.90;;;;;;5096910;28;20290;-50
2023/07/12 07:10:57;;;;;;;;;;;26.30;89.60;;;;;;5097716;28;19921;-48
2023/07/12 07:13:23;;;;;;;;;;;26.40;89.30;;;;;;5096409;28;19915;-46
2023/07/12 07:15:49;;;;;;;;;;;26.30;89.20;;;;;;5093917;28;19921;-51
2023/07/12 07:18:15;;;;;;;;;;;26.40;89.30;;;;;;5096960;28;20303;-48
2023/07/12 07:20:40;;;;;;;;;;;26.40;89.30;;;;;;5094498;28;19912;-51
2023/07/12 07:23:06;;;;;;;;;;;26.40;89.40;;;;;;5076612;28;19912;-51
2023/07/12 07:25:32;;;;;;;;;;;26.40;89.60;;;;;;5096829;28;19920;-48
2023/07/12 07:27:57;;;;;;;;;;;26.40;90.00;;;;;;5102122;28;19912;-50
2023/07/12 07:30:23;;;;;;;;;;;26.40;89.80;;;;;;5103640;28;19919;-47
2023/07/12 07:32:49;;;;;;;;;;;26.40;89.80;;;;;;5096758;28;20362;-49
2023/07/12 07:35:15;;;;;;;;;;;26.40;89.80;;;;;;5097006;28;20266;-48
2023/07/12 07:37:42;;;;;;;;;;;26.40;89.90;;;;;;5096988;28;20367;-48
2023/07/12 07:40:08;;;;;;;;;;;26.40;89.90;;;;;;5096849;28;20321;-51
2023/07/12 07:42:33;;;;;;;;;;;26.40;89.80;;;;;;5104133;28;19912;-49
2023/07/12 07:44:59;;;;;;;;;;;26.40;89.80;;;;;;5088419;28;19997;-47
2023/07/12 07:47:24;;;;;;;;;;;26.40;89.80;;;;;;5076755;28;19966;-51
2023/07/12 07:49:50;;;;;;;;;;;26.40;89.80;;;;;;5076795;28;19908;-52
2023/07/12 07:52:15;;;;;;;;;;;26.40;89.70;;;;;;5076398;28;19931;-48
2023/07/12 07:54:41;;;;;;;;;;;26.40;89.70;;;;;;5085885;28;19920;-49
2023/07/12 07:57:07;;;;;;;;;;;26.40;89.70;;;;;;5097023;28;19916;-51
2023/07/12 07:59:33;;;;;;;;;;;26.40;89.80;;;;;;5082401;28;19919;-49
2023/07/12 08:01:58;;;;;;;;;;;26.50;89.80;;;;;;5097530;28;20385;-54
2023/07/12 08:04:24;;;;;;;;;;;26.50;89.80;;;;;;5095521;28;20371;-52
2023/07/12 08:06:50;;;;;;;;;;;26.50;89.80;;;;;;5100382;28;19935;-50
2023/07/12 08:09:15;;;;;;;;;;;26.50;89.80;;;;;;5098045;28;19973;-49
2023/07/12 08:11:42;;;;;;;;;;;26.50;89.80;;;;;;5097475;28;19931;-50
2023/07/12 08:14:07;;;;;;;;;;;26.50;89.80;;;;;;5098393;28;20406;-49
2023/07/12 08:16:35;;;;;;;;;;;26.50;89.80;;;;;;5099940;28;19965;-47
2023/07/12 08:19:02;;;;;;;;;;;26.50;89.70;;;;;;5099838;28;19920;-47
2023/07/12 08:21:28;;;;;;;;;;;26.50;89.70;;;;;;5098025;28;20029;-51
2023/07/12 08:23:54;;;;;;;;;;;26.50;89.70;;;;;;5098666;28;20109;-50
2023/07/12 08:26:19;;;;;;;;;;;26.50;89.80;;;;;;5098828;28;19918;-52
2023/07/12 08:28:45;;;;;;;;;;;26.50;89.90;;;;;;5098309;28;19912;-51
2023/07/12 08:31:10;;;;;;;;;;;26.50;89.90;;;;;;5095024;28;19943;-52
2023/07/12 08:33:36;;;;;;;;;;;26.50;89.80;;;;;;5099366;28;19912;-51
2023/07/12 08:36:01;;;;;;;;;;;26.50;89.80;;;;;;5096146;28;19915;-50
2023/07/12 08:38:31;;;;;;;;;;;26.50;89.80;;;;;;5098810;28;19919;-45
2023/07/12 08:40:57;;;;;;;;;;;26.50;89.90;;;;;;5095570;28;19964;-48
2023/07/12 08:43:27;;;;;;;;;;;26.50;89.90;;;;;;5096025;28;19927;-53
2023/07/12 08:45:53;;;;;;;;;;;26.50;89.90;;;;;;5100856;28;19924;-49
2023/07/12 08:48:20;;;;;;;;;;;26.50;90.00;;;;;;5095448;28;19920;-48
2023/07/12 08:50:46;;;;;;;;;;;26.50;90.00;;;;;;5096508;28;19984;-51
2023/07/12 08:53:15;;;;;;;;;;;26.60;90.00;;;;;;5097140;28;20484;-48
2023/07/12 08:55:40;;;;;;;;;;;26.60;90.10;;;;;;5096185;28;19923;-47
2023/07/12 08:58:13;;;;;;;;;;;26.60;90.10;;;;;;5098529;28;19916;-51
2023/07/12 09:00:39;;;;;;;;;;;26.50;90.10;;;;;;5096744;28;20392;-47
2023/07/12 09:03:05;;;;;;;;;;;26.60;90.10;;;;;;5096950;28;19988;-48
2023/07/12 09:05:32;;;;;;;;;;;26.60;90.10;;;;;;5096460;28;19939;-52
2023/07/12 09:08:11;;;;;;;;;;;26.60;90.00;;;;;;5099379;28;19912;-49
2023/07/12 09:10:41;;;;;;;;;;;26.60;90.00;;;;;;5097503;28;19920;-50
2023/07/12 09:13:09;;;;;;;;;;;26.60;89.90;;;;;;5096097;28;19927;-51
2023/07/12 09:15:39;;;;;;;;;;;26.60;89.90;;;;;;5095124;28;19998;-49
2023/07/12 09:18:06;;;;;;;;;;;26.60;90.00;;;;;;5096014;28;19924;-49
2023/07/12 09:20:33;;;;;;;;;;;26.60;90.00;;;;;;5095017;28;20378;-51
2023/07/12 09:22:59;;;;;;;;;;;26.50;89.90;;;;;;5098615;28;20008;-48
2023/07/12 09:25:26;;;;;;;;;;;26.60;90.00;;;;;;5095449;28;20380;-52
2023/07/12 09:27:52;;;;;;;;;;;26.60;89.90;;;;;;5098812;28;19918;-51
2023/07/12 09:30:19;;;;;;;;;;;26.60;89.70;;;;;;5095348;28;20810;-45
2023/07/12 09:32:45;;;;;;;;;;;26.60;89.70;;;;;;5098258;28;19923;-51
2023/07/12 09:35:32;;;;;;;;;;;26.60;89.70;;;;;;5096939;28;19925;-44
2023/07/12 09:38:03;;;;;;;;;;;26.60;89.20;;;;;;5096142;28;19924;-52
2023/07/12 09:40:29;;;;;;;;;;;26.60;88.00;;;;;;5094783;28;19926;-53
2023/07/12 09:42:57;;;;;;;;;;;26.50;88.70;;;;;;5095048;28;19996;-50
2023/07/12 09:45:24;;;;;;;;;;;26.50;88.70;;;;;;5095557;28;19984;-50
2023/07/12 09:47:50;;;;;;;;;;;26.60;89.00;;;;;;5097039;28;19915;-51
2023/07/12 09:50:18;;;;;;;;;;;26.60;88.90;;;;;;5094257;28;19916;-51
2023/07/12 09:52:49;;;;;;;;;;;26.60;88.90;;;;;;5093709;28;19964;-53
2023/07/12 09:55:41;;;;;;;;;;;26.60;89.00;;;;;;5097380;28;20362;-47
2023/07/12 09:58:18;;;;;;;;;;;26.60;88.80;;;;;;5068572;28;19928;-52
2023/07/12 10:00:52;;;;;;;;;;;26.60;88.80;;;;;;5093727;28;20282;-50
2023/07/12 10:03:21;;;;;;;;;;;26.60;88.50;;;;;;5093432;28;20007;-49
2023/07/12 10:05:50;;;;;;;;;;;26.60;88.90;;;;;;5097418;28;20336;-51
2023/07/12 10:08:17;;;;;;;;;;;26.60;89.20;;;;;;5096709;28;19912;-49
2023/07/12 10:10:46;;;;;;;;;;;26.60;89.10;;;;;;5097325;28;19923;-49
2023/07/12 10:13:12;;;;;;;;;;;26.60;89.00;;;;;;5096468;28;20359;-49
2023/07/12 10:15:38;;;;;;;;;;;26.60;89.00;;;;;;5094301;28;19960;-50
2023/07/12 10:18:04;;;;;;;;;;;26.60;89.10;;;;;;5095011;28;19968;-49
2023/07/12 10:20:29;;;;;;;;;;;26.60;89.00;;;;;;5099104;28;19995;-53
2023/07/12 10:22:56;;;;;;;;;;;26.60;89.00;;;;;;5094659;28;19908;-48
2023/07/12 10:25:24;;;;;;;;;;;26.60;88.90;;;;;;5095004;28;19915;-52
2023/07/12 10:28:02;;;;;;;;;;;26.60;89.00;;;;;;5098307;28;19931;-51
2023/07/12 10:30:29;;;;;;;;;;;26.60;89.10;;;;;;5094759;28;19935;-48
2023/07/12 10:33:13;;;;;;;;;;;26.60;89.00;;;;;;5094281;28;20015;-50
2023/07/12 10:35:44;;;;;;;;;;;26.60;89.00;;;;;;5096646;28;19916;-49
2023/07/12 10:38:14;;;;;;;;;;;26.60;89.20;;;;;;5093686;28;20337;-51
2023/07/12 10:40:43;;;;;;;;;;;26.60;89.20;;;;;;5096006;28;19908;-51
2023/07/12 10:43:13;;;;;;;;;;;26.60;89.10;;;;;;5112391;28;19908;-51
2023/07/12 10:45:39;;;;;;;;;;;26.60;89.00;;;;;;5095464;28;19915;-48
2023/07/12 10:48:05;;;;;;;;;;;26.60;89.00;;;;;;5096313;28;19920;-50
2023/07/12 10:50:34;;;;;;;;;;;26.60;89.00;;;;;;5097420;28;19908;-46
2023/07/12 10:53:14;;;;;;;;;;;26.60;88.80;;;;;;5099312;28;20010;-50
2023/07/12 10:55:43;;;;;;;;;;;26.60;88.80;;;;;;5094292;28;20298;-52
2023/07/12 10:58:23;;;;;;;;;;;26.60;88.80;;;;;;5099941;28;19916;-52
2023/07/12 11:00:51;;;;;;;;;;;26.60;88.80;;;;;;5094538;28;19915;-54
2023/07/12 11:03:20;;;;;;;;;;;26.60;88.80;;;;;;5095824;28;20623;-53
2023/07/12 11:05:45;;;;;;;;;;;26.60;88.80;;;;;;5098641;28;19907;-47
2023/07/12 11:08:26;;;;;;;;;;;26.60;88.80;;;;;;5099090;28;20059;-47
2023/07/12 11:10:52;;;;;;;;;;;26.60;88.90;;;;;;5097847;28;19969;-54
2023/07/12 11:13:17;;;;;;;;;;;26.60;89.20;;;;;;5099160;28;19916;-51
2023/07/12 11:16:06;;;;;;;;;;;26.60;89.40;;;;;;5098770;28;19932;-52
2023/07/12 11:18:34;;;;;;;;;;;26.60;89.60;;;;;;5082063;28;20002;-47
2023/07/12 11:21:00;;;;;;;;;;;26.60;89.70;;;;;;5098068;28;19908;-51
2023/07/12 11:23:28;;;;;;;;;;;26.60;89.80;;;;;;5098764;28;19920;-50
2023/07/12 11:25:57;;;;;;;;;;;26.60;89.90;;;;;;5097518;28;19923;-50
2023/07/12 11:28:23;;;;;;;;;;;26.60;90.00;;;;;;5098655;28;19990;-48
2023/07/12 11:31:07;;;;;;;;;;;26.60;90.00;;;;;;5099776;28;19919;-48
2023/07/12 11:33:34;;;;;;;;;;;26.60;90.00;;;;;;5098449;28;20398;-52
2023/07/12 11:36:02;;;;;;;;;;;26.60;90.00;;;;;;5098821;28;19918;-46
2023/07/12 11:38:33;;;;;;;;;;;26.60;90.10;;;;;;5100232;28;19912;-48
2023/07/12 11:41:02;;;;;;;;;;;26.60;90.10;;;;;;5097300;28;19927;-51
2023/07/12 11:43:31;;;;;;;;;;;26.60;90.10;;;;;;5095799;28;19908;-47
2023/07/12 11:45:57;;;;;;;;;;;26.60;90.10;;;;;;5098264;28;20002;-51
2023/07/12 11:48:23;;;;;;;;;;;26.60;90.40;;;;;;5098601;28;20354;-49
2023/07/12 11:50:49;;;;;;;;;;;26.60;90.20;;;;;;5100220;28;19908;-51
2023/07/12 11:53:15;;;;;;;;;;;26.60;90.20;;;;;;5096174;28;19908;-49
2023/07/12 11:55:41;;;;;;;;;;;26.60;90.20;;;;;;5097776;28;19912;-48
2023/07/12 11:58:17;;;;;;;;;;;26.60;90.30;;;;;;5101220;28;19991;-50
2023/07/12 12:00:44;;;;;;;;;;;26.60;90.30;;;;;;5093501;28;19912;-49
2023/07/12 12:03:12;;;;;;;;;;;26.60;90.30;;;;;;5100248;28;19914;-49
2023/07/12 12:05:38;;;;;;;;;;;26.60;90.40;;;;;;5100031;28;19927;-50
2023/07/12 12:08:05;;;;;;;;;;;26.60;90.40;;;;;;5099651;28;19920;-49
2023/07/12 12:10:32;;;;;;;;;;;26.60;90.40;;;;;;5101341;28;20006;-54
2023/07/12 12:12:57;;;;;;;;;;;26.60;90.50;;;;;;5097494;28;20240;-52
2023/07/12 12:15:27;;;;;;;;;;;26.60;90.50;;;;;;5095313;28;19915;-54
2023/07/12 12:17:54;;;;;;;;;;;26.60;90.50;;;;;;5096683;28;19920;-52
2023/07/12 12:20:21;;;;;;;;;;;26.60;90.50;;;;;;5096425;28;19998;-54
2023/07/12 12:22:54;;;;;;;;;;;26.60;90.50;;;;;;5097733;28;19914;-58
2023/07/12 12:25:22;;;;;;;;;;;26.60;90.50;;;;;;5097206;28;19914;-49
2023/07/12 12:27:48;;;;;;;;;;;26.60;90.60;;;;;;5097674;28;19916;-49
2023/07/12 12:30:14;;;;;;;;;;;26.60;90.60;;;;;;5101528;28;20364;-53
2023/07/12 12:32:39;;;;;;;;;;;26.60;90.60;;;;;;5099807;28;19924;-50
2023/07/12 12:35:09;;;;;;;;;;;26.60;90.60;;;;;;5097870;28;20324;-50
2023/07/12 12:37:35;;;;;;;;;;;26.60;90.60;;;;;;5096809;28;20005;-53
2023/07/12 12:40:04;;;;;;;;;;;26.60;90.70;;;;;;5097741;28;20336;-50
2023/07/12 12:42:30;;;;;;;;;;;26.60;90.70;;;;;;5096798;28;19981;-49
2023/07/12 12:44:56;;;;;;;;;;;26.60;90.70;;;;;;5096612;28;19965;-47
2023/07/12 12:47:23;;;;;;;;;;;26.60;90.70;;;;;;5096899;28;20332;-48
2023/07/12 12:49:49;;;;;;;;;;;26.60;90.70;;;;;;5097958;28;20368;-50
2023/07/12 12:52:17;;;;;;;;;;;26.60;90.80;;;;;;5096901;28;19908;-46
2023/07/12 12:54:43;;;;;;;;;;;26.60;90.80;;;;;;5100458;28;20030;-47
2023/07/12 12:57:08;;;;;;;;;;;26.60;90.80;;;;;;5096792;28;20418;-50
2023/07/12 12:59:34;;;;;;;;;;;26.60;90.80;;;;;;5096825;28;19912;-48
2023/07/12 13:01:59;;;;;;;;;;;26.60;90.80;;;;;;5104902;28;19907;-49
2023/07/12 13:04:25;;;;;;;;;;;26.60;90.90;;;;;;5096160;28;20594;-50
2023/07/12 13:06:50;;;;;;;;;;;26.60;90.90;;;;;;5079642;28;19913;-50
2023/07/12 13:09:20;;;;;;;;;;;26.60;90.90;;;;;;5097738;28;20351;-51
2023/07/12 13:11:49;;;;;;;;;;;26.60;90.90;;;;;;5080609;28;19931;-52
2023/07/12 13:14:15;;;;;;;;;;;26.60;90.90;;;;;;5095996;28;19920;-48
2023/07/12 13:16:40;;;;;;;;;;;26.60;90.90;;;;;;5096711;28;19918;-49
2023/07/12 13:19:07;;;;;;;;;;;26.60;91.00;;;;;;5096732;28;20475;-51
2023/07/12 13:21:33;;;;;;;;;;;26.60;90.90;;;;;;5096436;28;19916;-47
2023/07/12 13:23:58;;;;;;;;;;;26.60;90.90;;;;;;5092410;28;20351;-50
2023/07/12 13:26:24;;;;;;;;;;;26.60;91.00;;;;;;5098324;28;19946;-53
2023/07/12 13:28:50;;;;;;;;;;;26.60;91.00;;;;;;5095841;28;20403;-51
2023/07/12 13:31:19;;;;;;;;;;;26.60;91.00;;;;;;5098073;28;19968;-52
2023/07/12 13:33:45;;;;;;;;;;;26.60;91.00;;;;;;5096128;28;20006;-50
2023/07/12 13:36:16;;;;;;;;;;;26.60;91.00;;;;;;5091650;28;20410;-52
2023/07/12 13:38:42;;;;;;;;;;;26.60;90.90;;;;;;5096023;28;19924;-50
2023/07/12 13:41:10;;;;;;;;;;;26.70;91.00;;;;;;5102775;28;19934;-51
2023/07/12 13:43:36;;;;;;;;;;;26.60;91.00;;;;;;5114103;28;19912;-51
2023/07/12 13:46:01;;;;;;;;;;;26.60;91.00;;;;;;5091986;28;19919;-47
2023/07/12 13:48:27;;;;;;;;;;;26.60;90.90;;;;;;5097541;28;19966;-48
2023/07/12 13:50:53;;;;;;;;;;;26.60;90.90;;;;;;5114863;28;19934;-48
2023/07/12 13:53:19;;;;;;;;;;;26.60;91.20;;;;;;5095685;28;20347;-52
2023/07/12 13:55:44;;;;;;;;;;;26.60;90.90;;;;;;5100570;28;19940;-50
2023/07/12 13:58:10;;;;;;;;;;;26.60;90.90;;;;;;5104514;28;19923;-48
2023/07/12 14:00:35;;;;;;;;;;;26.60;91.00;;;;;;5093648;28;19920;-48
2023/07/12 14:03:01;;;;;;;;;;;26.60;91.00;;;;;;5094068;28;19965;-49
2023/07/12 14:05:27;;;;;;;;;;;26.60;91.00;;;;;;5108308;28;20262;-52
2023/07/12 14:07:52;;;;;;;;;;;26.60;91.00;;;;;;5096840;28;20002;-50
2023/07/12 14:10:20;;;;;;;;;;;26.60;91.00;;;;;;5114813;28;19908;-49
2023/07/12 14:12:45;;;;;;;;;;;26.60;91.00;;;;;;5114682;28;19908;-48
2023/07/12 14:15:21;;;;;;;;;;;26.60;91.00;;;;;;5105832;28;19918;-49